createdAt,value
2018-07-30T00:00:01.933Z,20.51
2018-07-30T00:02:36.426Z,20.45
2018-07-30T00:05:07.611Z,20.44
2018-07-30T00:07:36.793Z,20.48
2018-07-30T00:10:06.497Z,20.51
2018-07-30T00:12:36.332Z,20.58
2018-07-30T00:15:06.021Z,20.61
2018-07-30T00:17:35.200Z,20.63
2018-07-30T00:20:04.481Z,20.63
2018-07-30T00:22:33.817Z,20.63
2018-07-30T00:25:03.059Z,20.65
2018-07-30T00:27:32.241Z,20.60
2018-07-30T00:30:01.454Z,20.60
2018-07-30T00:32:30.669Z,20.61
2018-07-30T00:34:59.852Z,20.62
2018-07-30T00:37:29.022Z,20.64
2018-07-30T00:39:58.184Z,20.63
2018-07-30T00:42:27.394Z,20.64
2018-07-30T00:44:56.522Z,20.64
2018-07-30T00:47:25.744Z,20.65
2018-07-30T00:49:54.973Z,20.65
2018-07-30T00:52:24.118Z,20.64
2018-07-30T00:54:53.365Z,20.63
2018-07-30T00:57:22.489Z,20.63
2018-07-30T00:59:51.619Z,20.61
2018-07-30T01:02:20.781Z,20.58
2018-07-30T01:04:50.065Z,20.56
2018-07-30T01:07:19.207Z,20.56
2018-07-30T01:09:48.356Z,20.56
2018-07-30T01:12:17.512Z,20.57
2018-07-30T01:14:46.649Z,20.55
2018-07-30T01:17:16.170Z,20.53
2018-07-30T01:19:45.394Z,20.45
2018-07-30T01:22:14.531Z,20.42
2018-07-30T01:24:43.685Z,20.40
2018-07-30T01:27:12.853Z,20.37
2018-07-30T01:29:42.021Z,20.33
2018-07-30T01:32:11.233Z,20.29
2018-07-30T01:34:40.401Z,20.29
2018-07-30T01:37:09.664Z,20.29
2018-07-30T01:39:39.012Z,20.30
2018-07-30T01:42:08.198Z,20.29
2018-07-30T01:44:37.338Z,20.29
2018-07-30T01:47:06.606Z,20.26
2018-07-30T01:49:35.769Z,20.24
2018-07-30T01:52:05.153Z,20.22
2018-07-30T01:54:34.286Z,20.22
2018-07-30T01:57:03.478Z,20.23
2018-07-30T01:59:32.756Z,20.20
2018-07-30T02:02:01.909Z,20.18
2018-07-30T02:04:31.072Z,20.14
2018-07-30T02:07:00.230Z,20.10
2018-07-30T02:09:29.388Z,20.06
2018-07-30T02:11:58.600Z,20.01
2018-07-30T02:14:27.759Z,19.99
2018-07-30T02:16:57.005Z,19.96
2018-07-30T02:19:26.155Z,19.95
2018-07-30T02:21:55.309Z,19.93
2018-07-30T02:24:24.468Z,19.88
2018-07-30T02:26:53.675Z,19.88
2018-07-30T02:29:22.849Z,19.84
2018-07-30T02:31:52.070Z,19.83
2018-07-30T02:34:21.298Z,19.78
2018-07-30T02:36:50.522Z,19.73
2018-07-30T02:39:19.677Z,19.70
2018-07-30T02:41:48.888Z,19.71
2018-07-30T02:44:18.024Z,19.69
2018-07-30T02:46:47.228Z,19.69
2018-07-30T02:49:16.398Z,19.68
2018-07-30T02:51:45.569Z,19.67
2018-07-30T02:54:14.917Z,19.66
2018-07-30T02:56:44.186Z,19.65
2018-07-30T02:59:13.318Z,19.63
2018-07-30T03:01:42.480Z,19.59
2018-07-30T03:04:11.662Z,19.56
2018-07-30T03:06:40.829Z,19.57
2018-07-30T03:09:11.622Z,19.55
2018-07-30T03:11:40.809Z,19.55
2018-07-30T03:14:10.007Z,19.56
2018-07-30T03:16:39.187Z,19.58
2018-07-30T03:19:08.639Z,19.58
2018-07-30T03:21:37.798Z,19.59
2018-07-30T03:24:07.020Z,19.56
2018-07-30T03:26:36.952Z,19.53
2018-07-30T03:29:06.262Z,19.44
2018-07-30T03:31:35.402Z,19.35
2018-07-30T03:34:04.597Z,19.29
2018-07-30T03:36:33.763Z,19.26
2018-07-30T03:39:02.979Z,19.26
2018-07-30T03:41:32.161Z,19.24
2018-07-30T03:44:01.370Z,19.27
2018-07-30T03:46:30.584Z,19.28
2018-07-30T03:48:59.752Z,19.29
2018-07-30T03:51:28.991Z,19.30
2018-07-30T03:53:58.145Z,19.33
2018-07-30T03:56:27.381Z,19.34
2018-07-30T03:58:56.602Z,19.35
2018-07-30T04:01:25.728Z,19.35
2018-07-30T04:03:54.973Z,19.36
2018-07-30T04:06:24.356Z,19.38
2018-07-30T04:08:53.797Z,19.39
2018-07-30T04:11:23.114Z,19.43
2018-07-30T04:13:52.336Z,19.46
2018-07-30T04:16:21.513Z,19.51
2018-07-30T04:18:50.693Z,19.55
2018-07-30T04:21:19.911Z,19.57
2018-07-30T04:23:49.012Z,19.60
2018-07-30T04:26:18.197Z,19.63
2018-07-30T04:28:47.328Z,19.69
2018-07-30T04:31:16.477Z,19.74
2018-07-30T04:33:45.621Z,19.79
2018-07-30T04:36:14.777Z,19.86
2018-07-30T04:38:43.991Z,19.95
2018-07-30T04:41:13.160Z,20.04
2018-07-30T04:43:42.321Z,20.11
2018-07-30T04:46:11.538Z,20.17
2018-07-30T04:48:40.773Z,20.24
2018-07-30T04:51:09.922Z,20.29
2018-07-30T04:53:39.048Z,20.37
2018-07-30T04:56:08.253Z,20.45
2018-07-30T04:58:37.410Z,20.55
2018-07-30T05:01:06.566Z,20.65
2018-07-30T05:03:35.780Z,20.73
2018-07-30T05:06:04.982Z,20.80
2018-07-30T05:08:34.121Z,20.89
2018-07-30T05:11:03.314Z,20.97
2018-07-30T05:13:32.500Z,21.05
2018-07-30T05:16:01.637Z,21.18
2018-07-30T05:18:31.243Z,21.32
2018-07-30T05:21:00.357Z,21.42
2018-07-30T05:23:29.499Z,21.50
2018-07-30T05:25:58.675Z,21.53
2018-07-30T05:28:27.794Z,21.58
2018-07-30T05:30:56.966Z,21.63
2018-07-30T05:33:26.133Z,21.74
2018-07-30T05:35:55.373Z,21.85
2018-07-30T05:38:24.561Z,21.93
2018-07-30T05:40:53.799Z,22.07
2018-07-30T05:43:22.964Z,22.20
2018-07-30T05:45:52.130Z,22.30
2018-07-30T05:48:21.301Z,22.46
2018-07-30T05:50:50.499Z,22.69
2018-07-30T05:53:19.645Z,22.86
2018-07-30T05:55:48.780Z,22.98
2018-07-30T05:58:17.922Z,23.07
2018-07-30T06:00:47.049Z,23.21
2018-07-30T06:03:16.209Z,23.38
2018-07-30T06:05:45.418Z,23.49
2018-07-30T06:08:14.526Z,23.54
2018-07-30T06:10:43.771Z,23.62
2018-07-30T06:13:12.903Z,23.59
2018-07-30T06:15:42.075Z,23.58
2018-07-30T06:18:11.242Z,23.74
2018-07-30T06:20:40.400Z,23.91
2018-07-30T06:23:09.732Z,23.96
2018-07-30T06:25:39.023Z,23.86
2018-07-30T06:28:08.215Z,23.92
2018-07-30T06:30:37.444Z,23.99
2018-07-30T06:33:06.744Z,24.01
2018-07-30T06:35:35.961Z,24.14
2018-07-30T06:38:05.123Z,24.15
2018-07-30T06:40:34.289Z,24.28
2018-07-30T06:43:03.421Z,24.44
2018-07-30T06:45:32.571Z,24.57
2018-07-30T06:48:01.802Z,24.65
2018-07-30T06:50:31.173Z,24.72
2018-07-30T06:53:00.285Z,24.67
2018-07-30T06:55:29.549Z,24.57
2018-07-30T06:57:58.701Z,24.66
2018-07-30T07:00:27.863Z,24.66
2018-07-30T07:02:57.078Z,24.80
2018-07-30T07:05:26.283Z,24.81
2018-07-30T07:07:55.501Z,24.90
2018-07-30T07:10:24.720Z,24.95
2018-07-30T07:12:53.884Z,25.15
2018-07-30T07:15:23.119Z,25.19
2018-07-30T07:17:52.269Z,25.21
2018-07-30T07:20:23.036Z,25.40
2018-07-30T07:22:52.272Z,25.64
2018-07-30T07:25:21.485Z,25.64
2018-07-30T07:27:50.662Z,25.81
2018-07-30T07:30:19.806Z,25.79
2018-07-30T07:32:49.162Z,25.72
2018-07-30T07:35:18.290Z,25.70
2018-07-30T07:37:47.459Z,25.93
2018-07-30T07:40:16.607Z,26.05
2018-07-30T07:42:45.749Z,26.17
2018-07-30T07:45:14.869Z,26.20
2018-07-30T07:47:44.105Z,26.39
2018-07-30T07:50:13.377Z,26.48
2018-07-30T07:52:42.389Z,26.65
2018-07-30T07:55:11.569Z,26.85
2018-07-30T07:57:40.713Z,27.01
2018-07-30T08:00:10.977Z,27.19
2018-07-30T08:02:40.254Z,27.32
2018-07-30T08:05:09.619Z,27.43
2018-07-30T08:07:38.750Z,27.48
2018-07-30T08:10:08.790Z,27.72
2018-07-30T08:12:37.957Z,27.74
2018-07-30T08:15:08.433Z,27.57
2018-07-30T08:17:37.603Z,27.45
2018-07-30T08:20:08.276Z,27.33
2018-07-30T08:22:37.589Z,27.33
2018-07-30T08:25:10.096Z,27.37
2018-07-30T08:27:39.216Z,27.38
2018-07-30T08:30:08.741Z,27.59
2018-07-30T08:32:38.249Z,27.98
2018-07-30T08:35:07.832Z,28.08
2018-07-30T08:37:37.010Z,28.21
2018-07-30T08:40:07.224Z,28.14
2018-07-30T08:42:36.377Z,28.38
2018-07-30T08:45:06.635Z,28.64
2018-07-30T08:47:35.792Z,28.84
2018-07-30T08:50:05.180Z,29.25
2018-07-30T08:52:34.352Z,29.50
2018-07-30T08:55:03.647Z,29.68
2018-07-30T08:57:32.817Z,29.90
2018-07-30T09:00:01.986Z,30.13
2018-07-30T09:02:31.208Z,29.93
2018-07-30T09:05:01.184Z,30.04
2018-07-30T09:07:30.319Z,30.08
2018-07-30T09:10:00.338Z,30.04
2018-07-30T09:12:29.513Z,29.77
2018-07-30T09:14:58.668Z,29.47
2018-07-30T09:17:27.800Z,29.32
2018-07-30T09:19:56.919Z,29.21
2018-07-30T09:22:26.093Z,29.04
2018-07-30T09:24:55.423Z,28.82
2018-07-30T09:27:24.584Z,28.65
2018-07-30T09:29:53.728Z,28.58
2018-07-30T09:32:22.864Z,28.54
2018-07-30T09:34:52.009Z,28.36
2018-07-30T09:37:21.174Z,28.19
2018-07-30T09:39:50.792Z,28.15
2018-07-30T09:42:19.990Z,28.02
2018-07-30T09:44:49.133Z,28.04
2018-07-30T09:47:18.424Z,28.06
2018-07-30T09:49:47.621Z,27.98
2018-07-30T09:52:16.776Z,27.91
2018-07-30T09:54:45.959Z,27.92
2018-07-30T09:57:15.125Z,27.92
2018-07-30T09:59:44.373Z,27.92
2018-07-30T10:02:13.491Z,27.96
2018-07-30T10:04:45.320Z,27.98
2018-07-30T10:07:15.129Z,27.90
2018-07-30T10:09:44.297Z,27.97
2018-07-30T10:12:13.479Z,28.09
2018-07-30T10:14:42.614Z,28.50
2018-07-30T10:17:11.749Z,29.03
2018-07-30T10:19:41.002Z,29.28
2018-07-30T10:22:10.160Z,29.51
2018-07-30T10:24:39.292Z,29.84
2018-07-30T10:27:08.782Z,30.19
2018-07-30T10:29:37.934Z,30.15
2018-07-30T10:32:07.111Z,30.10
2018-07-30T10:34:36.384Z,29.70
2018-07-30T10:37:05.706Z,29.59
2018-07-30T10:39:34.840Z,29.47
2018-07-30T10:42:04.041Z,29.26
2018-07-30T10:44:33.209Z,29.06
2018-07-30T10:47:02.325Z,29.09
2018-07-30T10:49:31.447Z,28.82
2018-07-30T10:52:00.608Z,29.18
2018-07-30T10:54:29.739Z,29.58
2018-07-30T10:56:58.893Z,30.19
2018-07-30T10:59:28.142Z,30.63
2018-07-30T11:01:57.260Z,30.65
2018-07-30T11:04:26.462Z,30.47
2018-07-30T11:06:55.708Z,30.37
2018-07-30T11:09:26.704Z,30.37
2018-07-30T11:11:53.961Z,30.26
2018-07-30T11:14:23.286Z,30.11
2018-07-30T11:16:52.402Z,29.70
2018-07-30T11:19:21.510Z,29.38
2018-07-30T11:21:50.634Z,29.26
2018-07-30T11:24:19.766Z,28.91
2018-07-30T11:26:48.997Z,28.58
2018-07-30T11:29:18.097Z,28.18
2018-07-30T11:31:47.254Z,27.74
2018-07-30T11:34:16.370Z,27.43
2018-07-30T11:36:45.627Z,27.20
2018-07-30T11:39:14.726Z,27.10
2018-07-30T11:41:43.961Z,27.00
2018-07-30T11:44:13.094Z,26.71
2018-07-30T11:46:42.220Z,26.55
2018-07-30T11:49:11.390Z,26.42
2018-07-30T11:51:40.585Z,26.36
2018-07-30T11:54:13.744Z,26.27
2018-07-30T11:56:42.918Z,26.18
2018-07-30T11:59:12.034Z,26.20
2018-07-30T12:01:41.182Z,26.13
2018-07-30T12:04:10.361Z,26.13
2018-07-30T12:06:39.477Z,26.07
2018-07-30T12:09:08.760Z,25.93
2018-07-30T12:11:37.957Z,25.91
2018-07-30T12:14:07.133Z,25.87
2018-07-30T12:16:36.249Z,25.87
2018-07-30T12:19:05.530Z,25.82
2018-07-30T12:21:34.673Z,25.66
2018-07-30T12:24:04.005Z,25.46
2018-07-30T12:26:35.377Z,25.39
2018-07-30T12:29:08.635Z,25.30
2018-07-30T12:31:37.889Z,25.34
2018-07-30T12:34:08.302Z,25.32
2018-07-30T12:36:49.417Z,25.32
2018-07-30T12:39:34.448Z,25.38
2018-07-30T12:42:12.004Z,25.29
2018-07-30T12:44:56.411Z,25.27
2018-07-30T12:47:31.246Z,25.37
2018-07-30T12:50:17.113Z,25.33
2018-07-30T12:53:01.258Z,25.38
2018-07-30T12:55:36.684Z,25.44
2018-07-30T12:58:11.473Z,25.50
2018-07-30T13:00:40.721Z,25.70
2018-07-30T13:03:09.909Z,25.91
2018-07-30T13:05:39.054Z,25.90
2018-07-30T13:08:08.764Z,26.03
2018-07-30T13:10:37.905Z,26.32
2018-07-30T13:13:07.185Z,26.68
2018-07-30T13:15:36.478Z,26.88
2018-07-30T13:18:05.609Z,27.01
2018-07-30T13:20:34.781Z,27.36
2018-07-30T13:23:04.040Z,27.47
2018-07-30T13:25:33.187Z,27.66
2018-07-30T13:28:02.333Z,27.61
2018-07-30T13:30:31.488Z,27.54
2018-07-30T13:33:00.607Z,27.64
2018-07-30T13:35:29.774Z,27.73
2018-07-30T13:37:59.125Z,27.84
2018-07-30T13:40:28.230Z,27.91
2018-07-30T13:42:57.516Z,27.93
2018-07-30T13:45:26.653Z,28.03
2018-07-30T13:47:55.755Z,28.18
2018-07-30T13:50:24.911Z,28.23
2018-07-30T13:52:54.103Z,28.26
2018-07-30T13:55:23.212Z,28.28
2018-07-30T13:57:52.431Z,28.26
2018-07-30T14:00:21.575Z,28.27
2018-07-30T14:02:50.697Z,28.33
2018-07-30T14:05:19.904Z,28.43
2018-07-30T14:07:49.056Z,28.41
2018-07-30T14:10:18.204Z,28.31
2018-07-30T14:12:47.415Z,28.27
2018-07-30T14:15:16.526Z,28.39
2018-07-30T14:17:45.672Z,28.51
2018-07-30T14:20:14.875Z,28.93
2018-07-30T14:22:44.000Z,29.32
2018-07-30T14:25:13.285Z,29.63
2018-07-30T14:27:42.409Z,29.76
2018-07-30T14:30:11.510Z,29.44
2018-07-30T14:32:40.644Z,29.27
2018-07-30T14:35:10.882Z,29.28
2018-07-30T14:37:40.010Z,29.37
2018-07-30T14:40:11.822Z,29.32
2018-07-30T14:42:41.311Z,29.34
2018-07-30T14:45:10.505Z,29.46
2018-07-30T14:47:39.711Z,29.49
2018-07-30T14:50:09.770Z,29.51
2018-07-30T14:52:38.928Z,29.61
2018-07-30T14:55:08.597Z,29.62
2018-07-30T14:57:37.744Z,29.73
2018-07-30T15:00:08.288Z,29.93
2018-07-30T15:02:37.598Z,29.88
2018-07-30T15:05:07.032Z,29.96
2018-07-30T15:07:36.210Z,30.23
2018-07-30T15:10:05.977Z,30.30
2018-07-30T15:12:35.235Z,30.12
2018-07-30T15:15:04.364Z,29.98
2018-07-30T15:17:33.477Z,30.16
2018-07-30T15:20:02.649Z,30.26
2018-07-30T15:22:31.733Z,30.28
2018-07-30T15:25:00.849Z,30.27
2018-07-30T15:27:29.957Z,30.36
2018-07-30T15:29:59.110Z,30.35
2018-07-30T15:32:28.856Z,30.41
2018-07-30T15:34:58.014Z,30.46
2018-07-30T15:37:27.156Z,30.53
2018-07-30T15:39:56.330Z,30.38
2018-07-30T15:42:25.435Z,30.36
2018-07-30T15:44:54.556Z,30.28
2018-07-30T15:47:23.752Z,30.28
2018-07-30T15:49:52.897Z,30.29
2018-07-30T15:52:22.107Z,30.33
2018-07-30T15:54:51.260Z,30.42
2018-07-30T15:57:20.348Z,30.56
2018-07-30T15:59:49.472Z,30.62
2018-07-30T16:02:18.766Z,30.53
2018-07-30T16:04:47.875Z,30.57
2018-07-30T16:07:17.021Z,30.60
2018-07-30T16:09:46.163Z,30.62
2018-07-30T16:12:15.358Z,30.55
2018-07-30T16:14:44.496Z,30.49
2018-07-30T16:17:13.665Z,30.44
2018-07-30T16:19:42.781Z,30.46
2018-07-30T16:22:11.924Z,30.49
2018-07-30T16:24:41.048Z,30.41
2018-07-30T16:27:10.752Z,30.32
2018-07-30T16:29:39.889Z,30.24
2018-07-30T16:32:09.033Z,30.21
2018-07-30T16:34:38.151Z,30.10
2018-07-30T16:37:07.410Z,30.05
2018-07-30T16:39:36.544Z,30.02
2018-07-30T16:42:05.757Z,29.98
2018-07-30T16:44:34.875Z,29.95
2018-07-30T16:47:04.168Z,29.96
2018-07-30T16:49:33.225Z,29.89
2018-07-30T16:52:02.432Z,29.75
2018-07-30T16:54:31.616Z,29.77
2018-07-30T16:57:00.724Z,29.75
2018-07-30T16:59:29.890Z,29.72
2018-07-30T17:01:59.132Z,29.63
2018-07-30T17:04:28.531Z,29.60
2018-07-30T17:06:57.661Z,29.57
2018-07-30T17:09:26.818Z,29.54
2018-07-30T17:11:55.929Z,29.48
2018-07-30T17:14:25.037Z,29.47
2018-07-30T17:16:54.273Z,29.38
2018-07-30T17:19:23.402Z,29.33
2018-07-30T17:21:52.518Z,29.27
2018-07-30T17:24:21.673Z,29.21
2018-07-30T17:26:50.769Z,29.20
2018-07-30T17:29:19.885Z,29.19
2018-07-30T17:31:49.060Z,29.14
2018-07-30T17:34:18.168Z,29.07
2018-07-30T17:36:47.268Z,29.01
2018-07-30T17:39:16.391Z,28.89
2018-07-30T17:41:45.497Z,28.83
2018-07-30T17:44:14.665Z,28.71
2018-07-30T17:46:43.817Z,28.61
2018-07-30T17:49:12.929Z,28.53
2018-07-30T17:51:42.055Z,28.50
2018-07-30T17:54:11.243Z,28.42
2018-07-30T17:56:40.443Z,28.26
2018-07-30T17:59:09.555Z,28.25
2018-07-30T18:01:38.852Z,28.18
2018-07-30T18:04:11.235Z,28.11
2018-07-30T18:06:40.404Z,28.03
2018-07-30T18:09:10.133Z,27.94
2018-07-30T18:11:39.512Z,27.84
2018-07-30T18:14:11.547Z,27.71
2018-07-30T18:16:40.787Z,27.57
2018-07-30T18:19:11.485Z,27.41
2018-07-30T18:21:40.608Z,27.30
2018-07-30T18:24:09.721Z,27.14
2018-07-30T18:26:39.180Z,27.02
2018-07-30T18:29:09.821Z,26.88
2018-07-30T18:31:38.921Z,26.70
2018-07-30T18:34:08.045Z,26.46
2018-07-30T18:36:37.218Z,26.35
2018-07-30T18:39:07.344Z,26.17
2018-07-30T18:41:36.496Z,25.97
2018-07-30T18:44:05.639Z,25.80
2018-07-30T18:46:34.801Z,25.66
2018-07-30T18:49:03.926Z,25.51
2018-07-30T18:51:33.040Z,25.38
2018-07-30T18:54:02.166Z,25.25
2018-07-30T18:56:31.329Z,25.09
2018-07-30T18:59:00.417Z,24.96
2018-07-30T19:01:29.579Z,24.83
2018-07-30T19:03:58.700Z,24.72
2018-07-30T19:06:27.870Z,24.65
2018-07-30T19:08:57.064Z,24.65
2018-07-30T19:11:26.342Z,24.68
2018-07-30T19:13:55.505Z,24.70
2018-07-30T19:16:24.614Z,24.72
2018-07-30T19:18:53.788Z,24.73
2018-07-30T19:21:22.913Z,24.72
2018-07-30T19:23:52.291Z,24.72
2018-07-30T19:26:21.454Z,24.69
2018-07-30T19:28:50.630Z,24.64
2018-07-30T19:31:19.905Z,24.58
2018-07-30T19:33:49.028Z,24.51
2018-07-30T19:36:18.159Z,24.39
2018-07-30T19:38:47.379Z,24.30
2018-07-30T19:41:16.580Z,24.20
2018-07-30T19:43:45.702Z,24.12
2018-07-30T19:46:15.257Z,23.99
2018-07-30T19:48:44.420Z,23.94
2018-07-30T19:51:13.489Z,23.85
2018-07-30T19:53:42.693Z,23.75
2018-07-30T19:56:11.858Z,23.66
2018-07-30T19:58:41.540Z,23.59
2018-07-30T20:01:10.215Z,23.55
2018-07-30T20:03:39.497Z,23.51
2018-07-30T20:06:08.613Z,23.46
2018-07-30T20:08:37.718Z,23.39
2018-07-30T20:11:08.103Z,23.34
2018-07-30T20:13:37.294Z,23.25
2018-07-30T20:16:06.661Z,23.17
2018-07-30T20:18:35.762Z,23.13
2018-07-30T20:21:05.073Z,23.10
2018-07-30T20:23:34.220Z,22.92
2018-07-30T20:26:03.394Z,22.83
2018-07-30T20:28:32.549Z,22.74
2018-07-30T20:31:01.726Z,22.64
2018-07-30T20:33:30.895Z,22.61
2018-07-30T20:36:00.008Z,22.60
2018-07-30T20:38:29.136Z,22.56
2018-07-30T20:40:58.285Z,22.53
2018-07-30T20:43:27.761Z,22.50
2018-07-30T20:45:57.378Z,22.46
2018-07-30T20:48:26.492Z,22.42
2018-07-30T20:50:55.834Z,22.38
2018-07-30T20:53:24.946Z,22.33
2018-07-30T20:55:54.072Z,22.27
2018-07-30T20:58:23.228Z,22.24
2018-07-30T21:00:52.376Z,22.21
2018-07-30T21:03:21.540Z,22.18
2018-07-30T21:05:50.652Z,22.14
2018-07-30T21:08:19.833Z,22.12
2018-07-30T21:10:48.940Z,22.09
2018-07-30T21:13:18.105Z,22.01
2018-07-30T21:15:47.244Z,21.92
2018-07-30T21:18:16.469Z,21.84
2018-07-30T21:20:45.625Z,21.81
2018-07-30T21:23:14.725Z,21.77
2018-07-30T21:25:43.901Z,21.69
2018-07-30T21:28:13.322Z,21.66
2018-07-30T21:30:42.493Z,21.63
2018-07-30T21:33:11.792Z,21.61
2018-07-30T21:35:40.967Z,21.58
2018-07-30T21:38:10.097Z,21.55
2018-07-30T21:40:39.222Z,21.48
2018-07-30T21:43:08.498Z,21.43
2018-07-30T21:45:37.610Z,21.36
2018-07-30T21:48:06.801Z,21.28
2018-07-30T21:50:35.928Z,21.26
2018-07-30T21:53:05.086Z,21.24
2018-07-30T21:55:34.274Z,21.21
2018-07-30T21:58:03.426Z,21.18
2018-07-30T22:00:32.597Z,21.13
2018-07-30T22:03:01.746Z,21.06
2018-07-30T22:05:30.896Z,21.00
2018-07-30T22:08:00.046Z,20.99
2018-07-30T22:10:29.303Z,20.97
2018-07-30T22:12:58.488Z,20.95
2018-07-30T22:15:28.004Z,20.89
2018-07-30T22:17:57.156Z,20.84
2018-07-30T22:20:26.351Z,20.82
2018-07-30T22:22:55.439Z,20.79
2018-07-30T22:25:24.653Z,20.76
2018-07-30T22:27:53.841Z,20.71
2018-07-30T22:30:22.984Z,20.63
2018-07-30T22:32:52.108Z,20.57
2018-07-30T22:35:21.263Z,20.52
2018-07-30T22:37:52.211Z,20.52
2018-07-30T22:40:21.359Z,20.49
2018-07-30T22:42:50.497Z,20.48
2018-07-30T22:45:19.625Z,20.46
2018-07-30T22:47:49.039Z,20.45
2018-07-30T22:50:18.203Z,20.39
2018-07-30T22:52:47.322Z,20.36
2018-07-30T22:55:17.478Z,20.28
2018-07-30T22:57:46.614Z,20.18
2018-07-30T23:00:15.754Z,20.12
2018-07-30T23:02:44.894Z,20.07
2018-07-30T23:05:14.113Z,20.08
2018-07-30T23:07:43.345Z,20.03
2018-07-30T23:10:12.487Z,20.01
2018-07-30T23:12:41.700Z,20.01
2018-07-30T23:15:11.011Z,20.01
2018-07-30T23:17:40.152Z,20.01
2018-07-30T23:20:09.373Z,19.96
2018-07-30T23:22:38.603Z,19.88
2018-07-30T23:25:08.000Z,19.82
2018-07-30T23:27:37.182Z,19.80
2018-07-30T23:30:06.902Z,19.73
2018-07-30T23:32:36.021Z,19.67
2018-07-30T23:35:05.186Z,19.63
2018-07-30T23:37:34.410Z,19.56
2018-07-30T23:40:03.594Z,19.56
2018-07-30T23:42:32.849Z,19.57
2018-07-30T23:45:02.014Z,19.59
2018-07-30T23:47:31.114Z,19.59
2018-07-30T23:50:00.272Z,19.57
2018-07-30T23:52:29.513Z,19.54
2018-07-30T23:54:58.719Z,19.45
2018-07-30T23:57:27.781Z,19.30
2018-07-30T23:59:56.889Z,19.21
